Time;durP1;ratioP1;P1;durP2;ratioP2;P2;SDS_P1;SDS_P2;PMS_P1;PMS_P2;Temp;Humidity;BMP_temperature;BMP_pressure;BME280_temperature;BME280_humidity;BME280_pressure;Samples;Min_cycle;Max_cycle;Signal;HPM_P1;HPM_P2
2023/07/31 00:00:43;;;;;;;7.68;3.10;;;15.80;99.90;;;-144.05;97.99;56963.53;6187262;23;20020;-89
2023/07/31 00:03:08;;;;;;;10.95;4.03;;;15.80;99.90;;;-144.05;98.22;56950.78;6187479;23;20005;-89
2023/07/31 00:05:34;;;;;;;8.13;3.90;;;15.80;99.90;;;-144.05;97.43;56963.53;6184034;23;20005;-87
2023/07/31 00:08:00;;;;;;;8.45;3.58;;;15.80;99.90;;;-144.05;97.39;56955.03;6186733;23;20008;-85
2023/07/31 00:10:26;;;;;;;8.07;3.40;;;15.80;99.90;;;-144.05;97.38;56955.03;6185990;23;20063;-89
2023/07/31 00:12:52;;;;;;;7.15;3.10;;;15.90;99.90;;;-144.05;97.33;56929.53;6185988;23;20013;-89
2023/07/31 00:15:18;;;;;;;7.63;3.88;;;15.90;99.90;;;-144.05;97.76;56952.91;6158876;23;20017;-88
2023/07/31 00:17:44;;;;;;;8.82;3.85;;;15.80;99.90;;;-144.05;98.45;56959.28;6158786;23;20320;-88
2023/07/31 00:20:10;;;;;;;7.20;3.50;;;15.80;99.90;;;-144.05;97.87;56948.66;6158096;23;20009;-87
2023/07/31 00:22:36;;;;;;;6.60;3.58;;;15.80;99.90;;;-144.05;98.31;56942.28;6157959;23;20009;-87
2023/07/31 00:25:02;;;;;;;8.00;3.42;;;15.80;99.90;;;-144.05;98.20;56961.41;6186074;23;20032;-88
2023/07/31 00:27:28;;;;;;;8.55;3.58;;;15.80;99.90;;;-144.05;98.07;56940.16;6158807;23;20435;-88
2023/07/31 00:29:54;;;;;;;13.68;4.15;;;15.80;99.90;;;-144.05;98.39;56963.53;6183989;23;20076;-89
2023/07/31 00:32:20;;;;;;;7.55;3.45;;;15.80;99.90;;;-144.05;98.79;56989.00;6157812;23;20140;-84
2023/07/31 00:34:46;;;;;;;9.45;3.85;;;15.80;99.90;;;-144.05;98.45;56963.53;6183881;23;20010;-87
2023/07/31 00:37:11;;;;;;;8.18;3.60;;;15.80;99.90;;;-144.05;98.54;56969.91;6184378;23;20005;-88
2023/07/31 00:39:37;;;;;;;11.00;4.07;;;15.80;99.90;;;-144.05;97.77;56931.66;6158166;23;20103;-88
2023/07/31 00:42:04;;;;;;;11.00;3.72;;;15.80;99.90;;;-144.05;97.66;56946.53;6158964;23;20052;-84
2023/07/31 00:44:29;;;;;;;10.93;3.92;;;15.80;99.90;;;-144.05;98.40;56957.16;6185873;23;20001;-86
2023/07/31 00:46:58;;;;;;;8.90;3.88;;;15.80;99.90;;;-144.05;98.63;56974.16;6158948;23;20346;-89
2023/07/31 00:49:25;;;;;;;11.23;4.28;;;15.80;99.90;;;-144.05;98.89;56946.53;6160449;23;20016;-90
2023/07/31 00:51:51;;;;;;;10.95;3.70;;;15.80;99.90;;;-144.05;97.26;56957.16;6189291;23;20362;-90
2023/07/31 00:54:18;;;;;;;10.25;4.00;;;15.80;99.90;;;-144.05;97.97;56944.41;6163139;23;20370;-86
2023/07/31 00:56:48;;;;;;;8.27;4.38;;;15.80;99.90;;;-144.05;97.97;56965.66;6164445;23;20036;-89
2023/07/31 00:59:14;;;;;;;11.82;4.47;;;15.80;99.90;;;-144.05;98.67;56982.66;6165744;23;20004;-85
2023/07/31 01:01:41;;;;;;;10.20;4.22;;;15.80;99.90;;;-144.05;99.02;56974.16;6173250;23;20009;-84
2023/07/31 01:04:07;;;;;;;12.05;5.10;;;15.80;99.90;;;-144.05;97.76;56948.66;6171629;23;20017;-90
2023/07/31 01:07:03;;;;;;;13.13;4.93;;;15.80;99.90;;;-144.05;97.52;56948.66;6165612;23;20013;-89
2023/07/31 01:10:17;;;;;;;12.23;4.95;;;15.90;99.90;;;-144.05;98.53;56942.28;6163826;23;20504;-89
2023/07/31 01:12:46;;;;;;;14.82;5.47;;;15.80;99.90;;;-144.05;96.97;56982.66;6085504;23;20452;-88
2023/07/31 01:15:14;;;;;;;13.88;4.97;;;15.80;99.90;;;-144.05;97.92;56955.03;6073273;23;20488;-90
2023/07/31 01:17:43;;;;;;;14.18;5.22;;;15.80;99.90;;;-144.05;97.38;56944.41;6150231;23;20335;-85
2023/07/31 01:20:22;;;;;;;14.43;5.28;;;15.90;99.90;;;-144.05;97.03;56976.28;6161092;23;20505;-89
2023/07/31 01:23:34;;;;;;;12.80;5.20;;;15.90;99.90;;;-144.05;96.89;56948.66;6190588;23;20016;-87
2023/07/31 01:26:16;;;;;;;18.80;5.82;;;15.90;99.90;;;-144.05;97.30;56957.16;6190568;23;20458;-90
2023/07/31 01:29:00;;;;;;;16.02;5.68;;;15.90;99.90;;;-144.05;97.10;56955.03;6189306;23;20315;-88
2023/07/31 01:31:30;;;;;;;15.82;5.22;;;15.80;99.90;;;-144.05;97.33;56963.53;6165881;23;20005;-91
2023/07/31 01:34:01;;;;;;;18.95;5.03;;;15.80;99.90;;;-144.05;96.82;56940.16;6193695;23;20009;-90
2023/07/31 01:36:30;;;;;;;11.10;5.03;;;15.80;99.90;;;-144.05;96.57;56986.91;6166731;23;20012;-87
2023/07/31 01:39:04;;;;;;;18.80;5.80;;;15.80;99.90;;;-144.05;95.76;56972.03;6171505;23;20035;-89
2023/07/31 01:41:30;;;;;;;18.30;6.00;;;15.90;99.90;;;-144.05;95.93;56974.16;6193120;23;20033;-90
2023/07/31 01:43:56;;;;;;;14.93;5.38;;;15.90;99.90;;;-144.05;95.57;56946.53;6193903;23;20315;-88
2023/07/31 01:46:22;;;;;;;14.75;5.47;;;15.90;99.90;;;-144.05;95.59;56948.66;6167056;23;20004;-87
2023/07/31 01:48:48;;;;;;;10.88;4.72;;;15.90;99.90;;;-144.05;94.74;56963.53;6162245;23;20032;-89
2023/07/31 01:51:14;;;;;;;14.18;5.32;;;15.90;99.90;;;-144.05;95.10;56952.91;6186542;23;20083;-86
2023/07/31 01:53:39;;;;;;;12.20;4.93;;;15.90;99.90;;;-144.05;95.22;56942.28;6164191;23;20101;-89
2023/07/31 01:56:05;;;;;;;14.38;5.28;;;15.90;99.90;;;-144.05;94.54;56967.78;6164329;23;20016;-88
2023/07/31 01:58:31;;;;;;;9.27;4.95;;;15.90;99.90;;;-144.05;94.77;56957.16;6162126;23;20009;-89
2023/07/31 02:00:57;;;;;;;12.95;4.63;;;15.90;99.90;;;-144.05;94.04;56952.91;6161779;23;20005;-89
2023/07/31 02:03:23;;;;;;;12.18;5.18;;;15.90;99.90;;;-144.05;94.17;56944.41;6161427;23;20032;-88
2023/07/31 02:05:50;;;;;;;12.43;5.13;;;15.90;99.90;;;-144.05;94.36;56961.41;6160732;23;20005;-90
2023/07/31 02:08:16;;;;;;;10.55;4.63;;;15.90;99.90;;;-144.05;93.43;56938.03;6160423;23;20376;-86
2023/07/31 02:10:43;;;;;;;12.00;4.15;;;15.90;99.90;;;-144.05;93.00;56965.66;6160480;23;20009;-88
2023/07/31 02:13:09;;;;;;;13.32;5.50;;;15.90;99.90;;;-144.05;93.90;56948.66;6175430;23;20474;-87
2023/07/31 02:15:35;;;;;;;14.23;4.72;;;15.90;99.90;;;-144.05;93.69;56967.78;6185235;23;20013;-87
2023/07/31 02:18:01;;;;;;;13.13;4.70;;;15.90;99.90;;;-144.05;93.75;56965.66;6196930;23;20077;-82
2023/07/31 02:20:27;;;;;;;12.82;4.30;;;15.90;99.90;;;-144.05;93.39;56933.78;6196342;23;20009;-91
2023/07/31 02:22:55;;;;;;;12.55;4.95;;;16.00;99.90;;;-144.05;92.64;56961.41;6189354;23;20005;-88
2023/07/31 02:25:21;;;;;;;10.73;4.50;;;15.90;99.90;;;-144.05;92.97;56948.66;6186621;23;20068;-88
2023/07/31 02:27:47;;;;;;;11.45;4.68;;;16.00;99.90;;;-144.05;91.96;56965.66;6185050;23;20016;-86
2023/07/31 02:30:13;;;;;;;12.32;4.22;;;15.90;99.90;;;-144.05;91.67;56957.16;6185575;23;20012;-86
2023/07/31 02:32:38;;;;;;;10.45;4.03;;;15.90;99.90;;;-144.05;92.14;56967.78;6185832;23;20020;-84
2023/07/31 02:35:05;;;;;;;13.13;4.88;;;15.90;99.90;;;-144.05;91.51;56935.91;6184337;23;20020;-87
2023/07/31 02:37:31;;;;;;;11.88;4.38;;;15.90;99.90;;;-144.05;91.75;56955.03;6184046;23;20006;-86
2023/07/31 02:39:57;;;;;;;10.68;4.38;;;15.90;99.90;;;-144.05;91.36;56959.28;6185165;23;20108;-87
2023/07/31 02:42:22;;;;;;;14.25;3.97;;;16.00;99.90;;;-144.05;91.23;56963.53;6185150;23;20012;-84
2023/07/31 02:44:49;;;;;;;12.20;4.43;;;16.00;99.90;;;-144.05;90.88;56957.16;6183816;23;20022;-87
2023/07/31 02:47:14;;;;;;;10.68;5.07;;;16.00;99.90;;;-144.05;90.64;56963.53;6183797;23;20050;-86
2023/07/31 02:49:40;;;;;;;14.32;4.75;;;16.00;99.90;;;-144.05;90.16;56961.41;6183158;23;20091;-85
2023/07/31 02:52:06;;;;;;;15.65;4.75;;;16.00;99.90;;;-144.05;89.95;56955.03;6183226;23;20096;-87
2023/07/31 02:54:32;;;;;;;9.02;4.20;;;16.00;99.90;;;-144.05;89.53;56978.41;6183351;23;20347;-85
2023/07/31 02:56:58;;;;;;;13.88;4.38;;;16.00;99.90;;;-144.05;90.64;56940.16;6183964;23;20012;-86
2023/07/31 02:59:25;;;;;;;9.23;4.25;;;16.00;99.90;;;-144.05;89.74;56965.66;6185034;23;20005;-85
2023/07/31 03:01:51;;;;;;;15.88;5.35;;;16.00;99.90;;;-144.05;89.82;56959.28;6185423;23;20028;-86
2023/07/31 03:04:16;;;;;;;12.48;3.78;;;16.00;99.90;;;-144.05;89.13;56963.53;6185896;23;20009;-85
2023/07/31 03:06:42;;;;;;;12.77;4.03;;;16.00;99.90;;;-144.05;89.57;56967.78;6186342;23;20023;-85
2023/07/31 03:09:08;;;;;;;15.15;4.90;;;16.00;99.90;;;-144.05;89.41;56957.16;6184284;23;20013;-84
2023/07/31 03:11:34;;;;;;;16.85;4.03;;;16.00;99.90;;;-144.05;89.67;56950.78;6185707;23;20009;-85
2023/07/31 03:14:00;;;;;;;16.70;4.82;;;16.00;99.90;;;-144.05;89.14;56957.16;6206123;23;20009;-83
2023/07/31 03:16:25;;;;;;;14.93;4.75;;;16.00;99.90;;;-144.05;88.78;56957.16;6193816;23;20490;-83
2023/07/31 03:18:51;;;;;;;14.10;4.50;;;16.00;99.90;;;-144.05;88.07;56972.03;6194013;23;20005;-86
2023/07/31 03:21:17;;;;;;;18.98;5.32;;;16.00;99.90;;;-144.05;88.26;56959.28;6186545;23;20346;-83
2023/07/31 03:23:43;;;;;;;14.63;4.63;;;16.00;99.90;;;-144.05;88.44;56961.41;6189072;23;20449;-86
2023/07/31 03:26:09;;;;;;;14.20;5.05;;;16.00;99.90;;;-144.05;88.03;56978.41;6188521;23;20005;-83
2023/07/31 03:28:35;;;;;;;10.75;4.15;;;16.00;99.90;;;-144.05;87.58;56980.53;6188353;23;20015;-83
2023/07/31 03:31:01;;;;;;;13.75;4.47;;;16.00;99.90;;;-144.05;87.03;56980.53;6191465;23;20005;-86
2023/07/31 03:33:32;;;;;;;12.35;3.97;;;16.00;99.90;;;-144.05;87.34;56976.28;6196203;23;20009;-85
2023/07/31 03:36:04;;;;;;;11.48;4.15;;;16.00;99.90;;;-144.05;87.35;56952.91;6197682;23;20001;-85
2023/07/31 03:38:30;;;;;;;14.80;4.75;;;16.00;99.90;;;-144.05;87.75;56967.78;6193564;23;20013;-85
2023/07/31 03:40:59;;;;;;;14.65;5.35;;;16.10;99.90;;;-144.05;87.44;56942.28;6195849;23;20143;-84
2023/07/31 03:43:25;;;;;;;15.32;4.65;;;16.10;99.90;;;-144.05;87.81;56980.53;6193561;23;20005;-82
2023/07/31 03:45:51;;;;;;;14.32;4.38;;;16.10;99.90;;;-144.05;87.06;56972.03;6189199;23;20028;-83
2023/07/31 03:48:17;;;;;;;14.00;4.47;;;16.10;99.90;;;-144.05;86.77;56942.28;6187472;23;20001;-81
2023/07/31 03:50:43;;;;;;;13.18;5.03;;;16.10;99.90;;;-144.05;86.63;56967.78;6188753;23;20461;-83
2023/07/31 03:53:08;;;;;;;12.23;4.32;;;16.10;99.90;;;-144.05;86.79;56980.53;6186598;23;20033;-83
2023/07/31 03:55:34;;;;;;;10.98;4.22;;;16.10;99.90;;;-144.05;86.56;56978.41;6187300;23;20009;-84
2023/07/31 03:58:00;;;;;;;13.70;4.50;;;16.10;99.90;;;-144.05;86.83;56967.78;6188113;23;20032;-86
2023/07/31 04:00:27;;;;;;;12.07;4.47;;;16.20;99.90;;;-144.05;86.89;56931.66;6193056;23;20399;-84
2023/07/31 04:02:53;;;;;;;16.45;4.57;;;16.20;99.90;;;-144.05;86.53;56952.91;6193842;23;20012;-83
2023/07/31 04:05:19;;;;;;;16.10;4.43;;;16.20;99.90;;;-144.05;86.99;56967.78;6194783;23;20011;-86
2023/07/31 04:07:45;;;;;;;11.80;4.10;;;16.20;99.90;;;-144.05;86.54;56965.66;6193281;23;20459;-85
2023/07/31 04:10:11;;;;;;;14.82;4.53;;;16.20;99.90;;;-144.05;86.46;56950.78;6192819;23;20277;-86
2023/07/31 04:12:36;;;;;;;12.07;3.80;;;16.30;99.90;;;-144.05;86.12;56976.28;6193230;23;20461;-85
2023/07/31 04:15:03;;;;;;;14.32;3.92;;;16.30;99.90;;;-144.05;85.86;56955.03;6191605;23;20043;-85
2023/07/31 04:17:31;;;;;;;8.93;3.92;;;16.30;99.90;;;-144.05;85.47;56967.78;6191627;23;20016;-85
2023/07/31 04:19:57;;;;;;;11.00;4.10;;;16.30;99.90;;;-144.05;85.67;56976.28;6192224;23;20005;-83
2023/07/31 04:22:23;;;;;;;11.55;4.40;;;16.30;99.90;;;-144.05;85.53;56940.16;6189337;23;20001;-85
2023/07/31 04:24:49;;;;;;;13.57;4.15;;;16.40;99.90;;;-144.05;84.76;56980.53;6191519;23;20005;-85
2023/07/31 04:27:15;;;;;;;14.35;4.10;;;16.40;99.90;;;-144.05;84.76;56974.16;6189556;23;20005;-84
2023/07/31 04:29:42;;;;;;;12.57;4.78;;;16.40;99.90;;;-144.05;85.11;56944.41;6190725;23;20008;-85
2023/07/31 04:32:08;;;;;;;14.23;4.60;;;16.50;99.90;;;-144.05;84.72;56965.66;6190640;23;20406;-84
2023/07/31 04:34:34;;;;;;;19.50;4.68;;;16.50;99.90;;;-144.05;85.33;56991.13;6188805;23;20080;-84
2023/07/31 04:37:00;;;;;;;10.45;3.90;;;16.50;99.90;;;-144.05;85.28;56974.16;6188986;23;20013;-82
2023/07/31 04:39:26;;;;;;;11.85;4.10;;;16.50;99.90;;;-144.05;84.92;56959.28;6186552;23;20382;-83
2023/07/31 04:41:51;;;;;;;11.18;4.20;;;16.50;99.90;;;-144.05;84.87;56974.16;6188612;23;20319;-82
2023/07/31 04:44:17;;;;;;;14.55;3.95;;;16.50;99.90;;;-144.05;84.92;56976.28;6191532;23;20012;-83
2023/07/31 04:46:43;;;;;;;14.57;4.50;;;16.50;99.90;;;-144.05;85.18;56986.91;6189464;23;20008;-82
2023/07/31 04:49:11;;;;;;;9.07;4.28;;;16.60;99.90;;;-144.05;84.66;56959.28;6190899;23;20005;-84
2023/07/31 04:51:37;;;;;;;13.63;3.97;;;16.60;99.90;;;-144.05;85.82;56965.66;6189077;23;20009;-82
2023/07/31 04:54:03;;;;;;;12.15;4.15;;;16.60;99.90;;;-144.05;85.20;56978.41;6191226;23;20013;-83
2023/07/31 04:56:29;;;;;;;11.10;4.32;;;16.60;99.90;;;-144.05;84.97;56963.53;6193737;23;20020;-82
2023/07/31 04:58:55;;;;;;;11.70;3.95;;;16.70;99.90;;;-144.05;84.81;56967.78;6191084;23;20012;-84
2023/07/31 05:01:20;;;;;;;8.90;4.15;;;16.60;99.90;;;-144.05;85.67;56989.00;6188642;23;20439;-80
2023/07/31 05:03:46;;;;;;;9.93;4.43;;;16.60;99.90;;;-144.05;86.58;56976.28;6191159;23;20004;-84
2023/07/31 05:06:13;;;;;;;11.93;4.22;;;16.60;99.90;;;-144.05;85.89;56959.28;6190433;23;20009;-84
2023/07/31 05:08:39;;;;;;;12.95;4.43;;;16.60;99.90;;;-144.05;85.45;56957.16;6190522;23;20012;-81
2023/07/31 05:11:05;;;;;;;12.13;4.15;;;16.60;99.90;;;-144.05;85.86;56972.03;6192336;23;20009;-84
2023/07/31 05:13:30;;;;;;;8.50;4.10;;;16.60;99.90;;;-144.05;86.82;56980.53;6191546;23;20012;-83
2023/07/31 05:15:56;;;;;;;11.27;4.55;;;16.60;99.90;;;-144.05;86.83;56978.41;6191204;23;20024;-86
2023/07/31 05:18:22;;;;;;;12.82;4.72;;;16.60;99.90;;;-144.05;87.35;56948.66;6191777;23;20330;-83
2023/07/31 05:20:48;;;;;;;10.68;3.95;;;16.50;99.90;;;-144.05;87.64;56961.41;6189491;23;20009;-83
2023/07/31 05:23:14;;;;;;;15.63;4.82;;;16.50;99.90;;;-144.05;88.68;56976.28;6190973;23;20001;-85
2023/07/31 05:25:40;;;;;;;10.68;4.13;;;16.50;99.90;;;-144.05;87.93;56989.00;6190273;23;20419;-82
2023/07/31 05:28:06;;;;;;;13.45;4.38;;;16.50;99.90;;;-144.05;87.10;56963.53;6189807;23;20012;-83
2023/07/31 05:30:31;;;;;;;15.55;4.35;;;16.60;99.90;;;-144.05;87.88;56961.41;6190536;23;20009;-84
2023/07/31 05:32:57;;;;;;;12.02;4.68;;;16.60;99.90;;;-144.05;87.10;56959.28;6190458;23;20113;-85
2023/07/31 05:35:23;;;;;;;9.90;4.28;;;16.60;99.90;;;-144.05;87.07;56963.53;6192013;23;20036;-83
2023/07/31 05:37:49;;;;;;;14.45;4.72;;;16.70;99.90;;;-144.05;87.55;56974.16;6191032;23;20036;-83
2023/07/31 05:40:15;;;;;;;9.38;4.35;;;16.70;99.90;;;-144.05;87.13;56946.53;6193039;23;20486;-83
2023/07/31 05:42:41;;;;;;;11.30;4.63;;;16.70;99.90;;;-144.05;88.03;56974.16;6190465;23;20001;-84
2023/07/31 05:45:10;;;;;;;10.15;4.82;;;16.70;99.90;;;-144.05;88.13;56972.03;6192597;23;20020;-82
2023/07/31 05:47:36;;;;;;;9.68;4.43;;;16.70;99.90;;;-144.05;87.85;56963.53;6192038;23;20334;-83
2023/07/31 05:50:02;;;;;;;13.10;4.57;;;16.80;99.90;;;-144.05;87.22;56969.91;6189935;23;20013;-81
2023/07/31 05:52:28;;;;;;;11.52;4.82;;;16.80;99.90;;;-144.05;86.83;56972.03;6192273;23;20087;-82
2023/07/31 05:54:55;;;;;;;10.98;4.80;;;16.80;99.90;;;-144.05;87.72;56967.78;6189681;23;20013;-83
2023/07/31 05:57:21;;;;;;;9.77;4.50;;;16.80;99.90;;;-144.05;87.92;56944.41;6191214;23;20005;-82
2023/07/31 05:59:46;;;;;;;12.85;4.55;;;16.80;99.90;;;-144.05;87.59;56972.03;6190494;23;20040;-84
2023/07/31 06:02:13;;;;;;;12.20;5.00;;;16.80;99.90;;;-144.05;87.22;56952.91;6190479;23;20020;-83
2023/07/31 06:04:39;;;;;;;9.25;4.30;;;16.90;99.90;;;-144.05;87.68;56967.78;6188521;23;20005;-85
2023/07/31 06:07:05;;;;;;;10.00;4.80;;;16.90;99.90;;;-144.05;88.68;56972.03;6188829;23;20445;-85
2023/07/31 06:09:31;;;;;;;12.18;5.07;;;16.70;99.90;;;-144.05;87.89;56948.66;6188396;23;20009;-83
2023/07/31 06:11:57;;;;;;;11.55;4.85;;;16.70;99.90;;;-144.05;89.58;56963.53;6187094;23;20443;-82
2023/07/31 06:14:23;;;;;;;11.40;4.97;;;16.70;99.90;;;-144.05;90.11;56982.66;6189092;23;20510;-82
2023/07/31 06:16:48;;;;;;;10.45;5.00;;;16.60;99.90;;;-144.05;90.27;56959.28;6189274;23;20005;-84
2023/07/31 06:19:14;;;;;;;12.13;4.70;;;16.60;99.90;;;-144.05;90.55;56980.53;6188314;23;20004;-85
2023/07/31 06:21:42;;;;;;;10.95;4.53;;;16.60;99.90;;;-144.05;90.37;56976.28;6187702;23;20362;-85
2023/07/31 06:24:08;;;;;;;8.90;4.15;;;16.60;99.90;;;-144.05;90.45;56969.91;6189907;23;20348;-86
2023/07/31 06:26:34;;;;;;;13.77;5.50;;;16.60;99.90;;;-144.05;89.76;56984.78;6191486;23;20029;-85
2023/07/31 06:29:00;;;;;;;12.32;5.40;;;16.60;99.90;;;-144.05;89.67;56972.03;6190480;23;20028;-83
2023/07/31 06:31:26;;;;;;;12.32;5.43;;;16.60;99.90;;;-144.05;90.67;56976.28;6190330;23;20009;-84
2023/07/31 06:33:52;;;;;;;11.50;5.82;;;16.60;99.90;;;-144.05;89.38;56955.03;6189472;23;20096;-83
2023/07/31 06:36:19;;;;;;;10.93;4.88;;;16.70;99.90;;;-144.05;88.56;56980.53;6189413;23;20020;-84
2023/07/31 06:38:45;;;;;;;13.05;5.18;;;16.70;99.90;;;-144.05;88.33;56974.16;6190359;23;20005;-83
2023/07/31 06:41:10;;;;;;;13.27;5.65;;;16.80;99.90;;;-144.05;89.07;56997.50;6189170;23;20013;-85
2023/07/31 06:43:37;;;;;;;12.85;5.10;;;16.80;99.90;;;-144.05;88.53;56972.03;6216133;23;20056;-83
2023/07/31 06:46:07;;;;;;;13.55;5.00;;;16.90;99.90;;;-144.05;87.63;56980.53;6192742;23;20009;-84
2023/07/31 06:48:34;;;;;;;10.73;5.07;;;16.90;99.90;;;-144.05;88.14;56967.78;6189984;23;20354;-83
2023/07/31 06:51:01;;;;;;;13.10;4.82;;;16.90;99.90;;;-144.05;87.53;56972.03;6191804;23;20032;-84
2023/07/31 06:53:28;;;;;;;10.48;5.57;;;16.90;99.90;;;-144.05;89.91;56944.41;6189858;23;20029;-83
2023/07/31 06:55:54;;;;;;;8.20;4.80;;;16.90;99.90;;;-144.05;89.53;56976.28;6188631;23;20024;-87
2023/07/31 06:58:20;;;;;;;12.02;5.13;;;16.90;99.90;;;-144.05;89.33;56972.03;6191691;23;20013;-83
2023/07/31 07:00:46;;;;;;;9.77;4.78;;;16.90;99.90;;;-144.05;88.91;56969.91;6213490;23;20061;-88
2023/07/31 07:03:14;;;;;;;11.45;5.03;;;17.00;99.90;;;-144.05;90.25;56957.16;6188260;23;20386;-82
2023/07/31 07:05:40;;;;;;;10.88;4.63;;;17.00;99.90;;;-144.05;89.44;56961.41;6190422;23;20059;-80
2023/07/31 07:08:06;;;;;;;11.88;4.93;;;17.00;99.90;;;-144.05;91.02;56959.28;6191341;23;20427;-83
2023/07/31 07:10:32;;;;;;;11.23;5.43;;;16.90;99.90;;;-144.05;90.55;56984.78;6190848;23;20036;-84
2023/07/31 07:12:58;;;;;;;7.93;4.82;;;16.90;99.90;;;-144.05;90.09;56965.66;6188278;23;20071;-85
2023/07/31 07:15:24;;;;;;;8.57;4.03;;;16.90;99.90;;;-144.05;89.80;56972.03;6189543;23;20001;-84
2023/07/31 07:17:49;;;;;;;10.23;4.55;;;17.00;99.90;;;-144.05;90.06;56965.66;6188075;23;20009;-85
2023/07/31 07:20:15;;;;;;;9.27;4.25;;;16.90;99.90;;;-144.05;89.91;56959.28;6189076;23;20410;-84
2023/07/31 07:22:44;;;;;;;8.07;4.50;;;16.90;99.90;;;-144.05;88.66;56984.78;6190437;23;20442;-83
2023/07/31 07:25:10;;;;;;;4.82;3.90;;;16.90;99.90;;;-144.05;89.85;56961.41;6192253;23;20021;-87
2023/07/31 07:27:36;;;;;;;8.63;4.50;;;17.00;99.90;;;-144.05;88.76;56969.91;6190538;23;20001;-85
2023/07/31 07:30:02;;;;;;;7.78;4.50;;;16.90;99.90;;;-144.05;89.76;56972.03;6191592;23;20031;-86
2023/07/31 07:32:28;;;;;;;10.52;4.45;;;16.90;99.90;;;-144.05;89.66;56972.03;6204427;23;20061;-86
2023/07/31 07:34:56;;;;;;;7.82;4.25;;;16.90;99.90;;;-144.05;90.79;56967.78;6205821;23;20016;-81
2023/07/31 07:37:22;;;;;;;8.15;4.38;;;16.80;99.90;;;-144.05;91.21;56974.16;6202950;23;20019;-80
2023/07/31 07:39:48;;;;;;;11.00;4.45;;;16.80;99.90;;;-144.05;90.99;56935.91;6198829;23;20013;-86
2023/07/31 07:42:13;;;;;;;10.00;4.80;;;16.80;99.90;;;-144.05;91.95;56974.16;6213982;23;20431;-89
2023/07/31 07:44:39;;;;;;;10.70;4.47;;;16.80;99.90;;;-144.05;91.79;57006.00;6188363;23;20005;-86
2023/07/31 07:47:06;;;;;;;8.18;4.07;;;16.80;99.90;;;-144.05;92.56;56980.53;6188153;23;20059;-83
2023/07/31 07:49:36;;;;;;;10.65;4.70;;;16.80;99.90;;;-144.05;93.13;56978.41;6190306;23;20032;-85
2023/07/31 07:52:03;;;;;;;8.98;4.40;;;16.70;99.90;;;-144.05;93.00;56967.78;6188869;23;20037;-85
2023/07/31 07:54:29;;;;;;;7.93;4.72;;;16.70;99.90;;;-144.05;92.75;56984.78;6189615;23;20005;-86
2023/07/31 07:56:54;;;;;;;6.90;3.97;;;16.70;99.90;;;-144.05;92.42;56969.91;6190435;23;20321;-86
2023/07/31 07:59:20;;;;;;;8.60;4.35;;;16.80;99.90;;;-144.05;91.66;56974.16;6188812;23;20095;-86
2023/07/31 08:01:46;;;;;;;5.57;3.83;;;16.80;99.90;;;-144.05;93.52;56976.28;6213760;23;20076;-86
2023/07/31 08:04:12;;;;;;;9.75;4.47;;;16.80;99.90;;;-144.05;92.56;56972.03;6189195;23;20158;-84
2023/07/31 08:06:38;;;;;;;6.38;3.80;;;16.80;99.90;;;-144.05;94.01;56978.41;6190390;23;20004;-85
2023/07/31 08:09:06;;;;;;;7.63;3.65;;;16.80;99.90;;;-144.05;92.33;56984.78;6188553;23;20009;-83
2023/07/31 08:11:33;;;;;;;9.25;4.50;;;16.80;99.90;;;-144.05;93.34;56978.41;6189744;23;20011;-88
2023/07/31 08:13:59;;;;;;;5.40;3.75;;;16.80;99.90;;;-144.05;92.35;56965.66;6188508;23;20012;-87
2023/07/31 08:16:24;;;;;;;7.90;4.00;;;16.80;99.90;;;-144.05;90.77;56974.16;6189624;23;20023;-88
2023/07/31 08:18:50;;;;;;;8.10;4.15;;;16.80;99.90;;;-144.05;91.20;56965.66;6188059;23;20040;-84
2023/07/31 08:21:16;;;;;;;8.80;4.22;;;16.80;99.90;;;-144.05;90.28;56969.91;6188258;23;20005;-86
2023/07/31 08:23:42;;;;;;;10.93;4.00;;;16.90;99.90;;;-144.05;91.70;56955.03;6190051;23;20153;-88
2023/07/31 08:26:08;;;;;;;8.25;4.30;;;16.90;99.90;;;-144.05;92.18;56974.16;6189971;23;20283;-87
2023/07/31 08:28:34;;;;;;;7.03;3.70;;;16.80;99.90;;;-144.05;91.92;56984.78;6188644;23;20012;-88
2023/07/31 08:31:00;;;;;;;6.95;3.72;;;16.80;99.90;;;-144.05;91.84;56952.91;6189424;23;20009;-87
2023/07/31 08:33:26;;;;;;;9.20;3.78;;;16.80;99.90;;;-144.05;91.91;56972.03;6188165;23;20020;-87
2023/07/31 08:35:52;;;;;;;7.88;3.85;;;16.80;99.90;;;-144.05;92.19;56946.53;6187879;23;20012;-87
2023/07/31 08:38:18;;;;;;;8.63;3.50;;;16.70;99.90;;;-144.05;92.50;56957.16;6189999;23;20383;-87
2023/07/31 08:40:44;;;;;;;7.90;3.50;;;16.80;99.90;;;-144.05;93.55;56978.41;6189510;23;20005;-83
2023/07/31 08:43:09;;;;;;;6.80;3.80;;;16.80;99.90;;;-144.05;95.16;56986.91;6187073;23;20009;-85
2023/07/31 08:45:36;;;;;;;10.07;3.58;;;16.70;99.90;;;-144.05;94.98;56948.66;6187926;23;20013;-83
2023/07/31 08:48:02;;;;;;;5.60;3.58;;;16.70;99.90;;;-144.05;93.64;56982.66;6187916;23;20005;-86
2023/07/31 08:50:28;;;;;;;6.95;3.35;;;16.70;99.90;;;-144.05;94.67;56969.91;6189733;23;20013;-86
2023/07/31 08:52:54;;;;;;;7.55;4.20;;;16.80;99.90;;;-144.05;94.74;56967.78;6187293;23;20008;-86
2023/07/31 08:55:24;;;;;;;8.05;3.38;;;16.80;99.90;;;-144.05;95.09;56965.66;6188250;23;20008;-85
2023/07/31 08:57:55;;;;;;;6.85;2.80;;;16.80;99.90;;;-144.05;93.35;56980.53;6212873;23;20044;-87
2023/07/31 09:00:24;;;;;;;5.03;2.67;;;16.80;99.90;;;-144.05;92.83;56967.78;6188746;23;20009;-86
2023/07/31 09:03:02;;;;;;;4.65;2.70;;;16.80;99.90;;;-144.05;92.03;56999.63;6188396;23;20005;-87
2023/07/31 09:05:31;;;;;;;5.13;2.88;;;16.80;99.90;;;-144.05;95.02;56963.53;6188756;23;20035;-86
2023/07/31 09:07:59;;;;;;;5.63;2.45;;;16.70;99.90;;;-144.05;94.77;56986.91;6190778;23;20000;-87
2023/07/31 09:10:25;;;;;;;3.58;2.35;;;16.50;99.90;;;-144.05;93.38;56976.28;6189788;23;20005;-89
2023/07/31 09:12:52;;;;;;;5.43;2.60;;;16.60;99.90;;;-144.05;94.02;56963.53;6187844;23;20020;-88
2023/07/31 09:15:20;;;;;;;4.88;3.00;;;16.60;99.90;;;-144.05;95.75;56967.78;6188936;23;20378;-88
2023/07/31 09:17:46;;;;;;;4.78;2.95;;;16.60;99.90;;;-144.05;94.92;56974.16;6190927;23;20082;-86
2023/07/31 09:20:21;;;;;;;4.38;2.70;;;16.70;99.90;;;-144.05;95.74;56976.28;6189412;23;20441;-86
2023/07/31 09:22:49;;;;;;;4.72;2.40;;;16.70;99.90;;;-144.05;94.94;56974.16;6191172;23;20072;-85
2023/07/31 09:25:25;;;;;;;5.32;2.75;;;16.80;99.90;;;-144.05;95.40;56982.66;6188488;23;20009;-89
2023/07/31 09:28:07;;;;;;;3.95;2.30;;;16.70;99.90;;;-144.05;95.99;56978.41;6187095;23;20064;-84
2023/07/31 09:30:52;;;;;;;7.00;2.53;;;16.70;99.90;;;-144.05;93.98;56969.91;6188006;23;20013;-86
2023/07/31 09:33:19;;;;;;;4.90;2.70;;;16.80;99.90;;;-144.05;95.10;56982.66;6187753;23;20016;-84
2023/07/31 09:35:48;;;;;;;5.55;2.05;;;16.70;99.90;;;-144.05;94.14;56963.53;6187915;23;20009;-85
2023/07/31 09:38:15;;;;;;;3.53;2.08;;;16.80;99.90;;;-144.05;93.60;56948.66;6187434;23;20021;-87
2023/07/31 09:40:48;;;;;;;4.75;2.33;;;16.80;99.90;;;-144.05;93.91;56982.66;6188645;23;20087;-88
2023/07/31 09:43:21;;;;;;;6.15;2.90;;;16.80;99.90;;;-144.05;95.02;56965.66;6187953;23;20032;-86
2023/07/31 09:45:48;;;;;;;5.72;3.05;;;16.70;99.90;;;-144.05;96.04;56989.00;6187638;23;20009;-87
2023/07/31 09:48:17;;;;;;;4.32;2.70;;;16.70;99.90;;;-144.05;95.63;56955.03;6188191;23;20171;-85
2023/07/31 09:50:47;;;;;;;3.55;2.53;;;16.80;99.90;;;-144.05;96.15;56963.53;6188700;23;20358;-87
2023/07/31 09:53:16;;;;;;;6.82;2.70;;;16.70;99.90;;;-144.05;96.27;56967.78;6190395;23;20071;-85
2023/07/31 09:55:43;;;;;;;7.57;2.65;;;16.60;99.90;;;-144.05;96.06;56980.53;6189615;23;20468;-88
2023/07/31 09:58:12;;;;;;;4.40;2.78;;;16.70;99.90;;;-144.05;95.41;56991.13;6190155;23;20042;-87
2023/07/31 10:00:39;;;;;;;7.18;2.85;;;16.80;99.90;;;-144.05;94.62;56972.03;6191293;23;20012;-89
2023/07/31 10:03:11;;;;;;;5.40;2.90;;;16.90;99.90;;;-144.05;94.18;56974.16;6189739;23;20025;-87